Time,TemperatureF,DewpointF,PressureIn,WindDirection,WindDirectionDegrees,WindSpeedMPH,WindSpeedGustMPH,Humidity,HourlyPrecipIn,Conditions,Clouds,dailyrainin,SolarRadiationWatts/m^2,SoftwareType,DateUTC
2013-08-27 00:02:00,60.5,57.9,29.73,SSE,164,0.0,1.0,91,0.00,,,0.00,0,Wunderground v.1.15,2013-08-27 07:02:00,
2013-08-27 00:07:00,60.3,57.7,29.74,SSE,164,0.0,1.0,91,0.00,,,0.00,0,Wunderground v.1.15,2013-08-27 07:07:00,
2013-08-27 00:13:00,60.3,57.7,29.74,SSE,165,0.0,1.0,91,0.00,,,0.00,0,Wunderground v.1.15,2013-08-27 07:13:00,
2013-08-27 00:18:00,60.3,58.0,29.74,SSE,165,0.0,1.0,92,0.00,,,0.00,0,Wunderground v.1.15,2013-08-27 07:18:00,
2013-08-27 00:23:00,60.2,57.9,29.74,SSE,165,0.0,0.0,92,0.00,,,0.00,0,Wunderground v.1.15,2013-08-27 07:23:00,
2013-08-27 00:28:00,60.2,57.9,29.74,SSE,165,0.0,0.0,92,0.00,,,0.00,0,Wunderground v.1.15,2013-08-27 07:28:00,
2013-08-27 00:33:00,60.1,57.8,29.74,SSE,165,0.0,0.0,92,0.00,,,0.00,0,Wunderground v.1.15,2013-08-27 07:33:00,
2013-08-27 00:38:00,60.2,57.9,29.74,SSE,165,0.0,0.0,92,0.00,,,0.00,0,Wunderground v.1.15,2013-08-27 07:38:00,
2013-08-27 00:43:00,60.2,57.9,29.74,SSE,165,0.0,0.0,92,0.00,,,0.00,0,Wunderground v.1.15,2013-08-27 07:43:00,
2013-08-27 00:48:00,60.1,57.8,29.74,SSE,165,0.0,0.0,92,0.00,,,0.00,0,Wunderground v.1.15,2013-08-27 07:48:00,
2013-08-27 00:54:00,60.0,57.7,29.74,SSE,165,0.0,0.0,92,0.00,,,0.00,0,Wunderground v.1.15,2013-08-27 07:54:00,
2013-08-27 00:59:00,60.0,57.7,29.75,SSE,165,0.0,0.0,92,0.00,,,0.00,0,Wunderground v.1.15,2013-08-27 07:59:00,
2013-08-27 01:04:00,59.9,57.6,29.74,SSE,164,0.0,0.0,92,0.00,,,0.00,0,Wunderground v.1.15,2013-08-27 08:04:00,
2013-08-27 01:09:00,59.9,57.6,29.74,SSE,165,0.0,0.0,92,0.00,,,0.00,0,Wunderground v.1.15,2013-08-27 08:09:00,
2013-08-27 01:14:00,59.9,57.9,29.74,SSE,165,0.0,0.0,93,0.00,,,0.00,0,Wunderground v.1.15,2013-08-27 08:14:00,
2013-08-27 01:20:00,60.0,58.0,29.74,SSE,165,0.0,0.0,93,0.00,,,0.00,0,Wunderground v.1.15,2013-08-27 08:20:00,
2013-08-27 01:25:00,60.0,58.0,29.74,SSE,165,0.0,0.0,93,0.00,,,0.00,0,Wunderground v.1.15,2013-08-27 08:25:00,
2013-08-27 01:30:00,59.9,57.9,29.74,SSE,165,0.0,0.0,93,0.00,,,0.00,0,Wunderground v.1.15,2013-08-27 08:30:00,
2013-08-27 01:35:00,60.0,58.0,29.74,SSE,165,0.0,0.0,93,0.00,,,0.00,0,Wunderground v.1.15,2013-08-27 08:35:00,
2013-08-27 01:40:00,60.0,58.0,29.74,SSE,165,0.0,0.0,93,0.00,,,0.00,0,Wunderground v.1.15,2013-08-27 08:40:00,
2013-08-27 01:46:00,60.0,58.0,29.74,SSE,165,0.0,0.0,93,0.00,,,0.00,0,Wunderground v.1.15,2013-08-27 08:46:00,
2013-08-27 01:51:00,60.0,58.0,29.74,SSE,165,0.0,0.0,93,0.00,,,0.00,0,Wunderground v.1.15,2013-08-27 08:51:00,
2013-08-27 01:56:00,60.0,58.0,29.74,SSE,165,0.0,0.0,93,0.00,,,0.00,0,Wunderground v.1.15,2013-08-27 08:56:00,
2013-08-27 02:01:00,60.0,58.0,29.74,SSE,165,0.0,0.0,93,0.00,,,0.00,0,Wunderground v.1.15,2013-08-27 09:01:00,
2013-08-27 02:06:00,60.0,58.0,29.73,SSE,164,0.0,0.0,93,0.00,,,0.00,0,Wunderground v.1.15,2013-08-27 09:06:00,
2013-08-27 02:11:00,60.1,58.1,29.73,SSE,164,0.0,1.0,93,0.00,,,0.00,0,Wunderground v.1.15,2013-08-27 09:11:00,
2013-08-27 02:16:00,60.1,58.1,29.73,SSE,165,0.0,1.0,93,0.00,,,0.00,0,Wunderground v.1.15,2013-08-27 09:16:00,
2013-08-27 02:21:00,60.1,58.1,29.73,SSE,165,0.0,0.0,93,0.00,,,0.00,0,Wunderground v.1.15,2013-08-27 09:21:00,
2013-08-27 02:26:00,60.0,58.0,29.73,SSE,165,0.0,1.0,93,0.00,,,0.00,0,Wunderground v.1.15,2013-08-27 09:26:00,
2013-08-27 02:31:00,60.0,58.0,29.73,SSE,164,0.0,0.0,93,0.00,,,0.00,0,Wunderground v.1.15,2013-08-27 09:31:00,
2013-08-27 02:36:00,59.9,57.9,29.72,SSE,165,0.0,1.0,93,0.00,,,0.00,0,Wunderground v.1.15,2013-08-27 09:36:00,
2013-08-27 02:41:00,59.9,58.2,29.72,SSE,165,0.0,0.0,94,0.00,,,0.00,0,Wunderground v.1.15,2013-08-27 09:41:00,
2013-08-27 02:46:00,59.9,57.9,29.72,SSE,165,0.0,0.0,93,0.00,,,0.00,0,Wunderground v.1.15,2013-08-27 09:46:00,
2013-08-27 02:51:00,59.8,57.8,29.72,SSE,165,0.0,0.0,93,0.00,,,0.00,0,Wunderground v.1.15,2013-08-27 09:51:00,
2013-08-27 02:56:00,59.6,57.6,29.73,SSE,165,0.0,1.0,93,0.00,,,0.00,0,Wunderground v.1.15,2013-08-27 09:56:00,
2013-08-27 03:01:00,59.5,57.5,29.73,SSE,165,0.0,0.0,93,0.00,,,0.00,0,Wunderground v.1.15,2013-08-27 10:01:00,
2013-08-27 03:06:00,59.5,57.5,29.72,SSE,165,0.0,0.0,93,0.00,,,0.00,0,Wunderground v.1.15,2013-08-27 10:06:00,
2013-08-27 03:11:00,59.6,57.9,29.72,SSE,164,0.0,0.0,94,0.00,,,0.00,0,Wunderground v.1.15,2013-08-27 10:11:00,
2013-08-27 03:16:00,59.6,57.9,29.73,SSE,165,0.0,0.0,94,0.00,,,0.00,0,Wunderground v.1.15,2013-08-27 10:16:00,
2013-08-27 03:21:00,59.6,57.9,29.73,SSE,165,0.0,0.0,94,0.00,,,0.00,0,Wunderground v.1.15,2013-08-27 10:21:00,
2013-08-27 03:26:00,59.6,57.9,29.73,SSE,165,0.0,0.0,94,0.00,,,0.00,0,Wunderground v.1.15,2013-08-27 10:26:00,
2013-08-27 03:31:00,59.6,57.9,29.72,SSE,165,0.0,1.0,94,0.00,,,0.00,0,Wunderground v.1.15,2013-08-27 10:31:00,
2013-08-27 03:36:00,59.7,58.0,29.72,SSE,164,0.0,1.0,94,0.00,,,0.01,0,Wunderground v.1.15,2013-08-27 10:36:00,
2013-08-27 03:41:00,59.8,58.1,29.72,SSE,165,0.0,0.0,94,0.00,,,0.01,0,Wunderground v.1.15,2013-08-27 10:41:00,
2013-08-27 03:46:00,59.7,58.0,29.72,SSE,165,0.0,1.0,94,0.00,,,0.01,0,Wunderground v.1.15,2013-08-27 10:46:00,
2013-08-27 03:51:00,59.8,58.1,29.72,SSE,164,0.0,1.0,94,0.00,,,0.01,0,Wunderground v.1.15,2013-08-27 10:51:00,
2013-08-27 03:56:00,59.7,58.0,29.72,SSE,165,1.0,2.0,94,0.00,,,0.01,0,Wunderground v.1.15,2013-08-27 10:56:00,
2013-08-27 04:01:00,59.8,58.1,29.72,SSE,164,1.0,3.0,94,0.00,,,0.01,0,Wunderground v.1.15,2013-08-27 11:01:00,
2013-08-27 04:06:00,59.8,58.1,29.72,SSE,165,0.0,3.0,94,0.00,,,0.01,0,Wunderground v.1.15,2013-08-27 11:06:00,
2013-08-27 04:11:00,59.8,58.1,29.72,SSE,165,0.0,1.0,94,0.00,,,0.01,0,Wunderground v.1.15,2013-08-27 11:11:00,
2013-08-27 04:16:00,59.7,58.0,29.72,SSE,165,0.0,1.0,94,0.00,,,0.01,0,Wunderground v.1.15,2013-08-27 11:16:00,
2013-08-27 04:21:00,59.7,58.0,29.72,SSE,165,0.0,0.0,94,0.00,,,0.01,0,Wunderground v.1.15,2013-08-27 11:21:00,
2013-08-27 04:26:00,59.7,58.0,29.72,SSE,164,0.0,0.0,94,0.00,,,0.01,0,Wunderground v.1.15,2013-08-27 11:26:00,
2013-08-27 04:31:00,59.8,58.1,29.72,SSE,165,0.0,1.0,94,0.00,,,0.01,0,Wunderground v.1.15,2013-08-27 11:31:00,
2013-08-27 04:36:00,59.9,58.2,29.72,SSE,165,0.0,1.0,94,0.00,,,0.01,0,Wunderground v.1.15,2013-08-27 11:36:00,
2013-08-27 04:41:00,59.8,58.1,29.72,SSE,165,0.0,0.0,94,0.00,,,0.01,0,Wunderground v.1.15,2013-08-27 11:41:00,
2013-08-27 04:46:00,59.8,58.1,29.72,SSE,165,0.0,0.0,94,0.00,,,0.01,0,Wunderground v.1.15,2013-08-27 11:46:00,
2013-08-27 04:51:00,59.8,58.1,29.71,SSE,164,0.0,0.0,94,0.00,,,0.01,0,Wunderground v.1.15,2013-08-27 11:51:00,
2013-08-27 04:56:00,59.8,58.1,29.71,SSE,164,0.0,0.0,94,0.00,,,0.01,0,Wunderground v.1.15,2013-08-27 11:56:00,
2013-08-27 05:01:00,59.8,58.1,29.72,SSE,165,0.0,0.0,94,0.00,,,0.01,0,Wunderground v.1.15,2013-08-27 12:01:00,
2013-08-27 05:06:00,59.8,58.1,29.72,SSE,165,0.0,1.0,94,0.00,,,0.01,0,Wunderground v.1.15,2013-08-27 12:06:00,
2013-08-27 05:11:00,59.7,58.0,29.72,SSE,165,1.0,1.0,94,0.00,,,0.01,0,Wunderground v.1.15,2013-08-27 12:11:00,
2013-08-27 05:16:00,59.6,57.9,29.71,SSE,165,0.0,1.0,94,0.00,,,0.01,0,Wunderground v.1.15,2013-08-27 12:16:00,
2013-08-27 05:22:00,59.6,57.9,29.71,SSE,165,0.0,0.0,94,0.00,,,0.01,0,Wunderground v.1.15,2013-08-27 12:22:00,
2013-08-27 05:26:00,59.6,57.9,29.71,SSE,164,0.0,0.0,94,0.00,,,0.01,0,Wunderground v.1.15,2013-08-27 12:26:00,
2013-08-27 05:31:00,59.6,57.9,29.72,SSE,165,0.0,0.0,94,0.00,,,0.01,0,Wunderground v.1.15,2013-08-27 12:31:00,
2013-08-27 05:36:00,59.6,57.9,29.71,SSE,165,0.0,1.0,94,0.00,,,0.01,0,Wunderground v.1.15,2013-08-27 12:36:00,
2013-08-27 05:41:00,59.5,57.8,29.71,SSE,165,0.0,1.0,94,0.00,,,0.01,0,Wunderground v.1.15,2013-08-27 12:41:00,
2013-08-27 05:46:00,59.4,57.7,29.71,SSE,164,0.0,1.0,94,0.00,,,0.01,0,Wunderground v.1.15,2013-08-27 12:46:00,
2013-08-27 05:51:00,59.3,57.6,29.71,SSE,164,0.0,0.0,94,0.00,,,0.01,0,Wunderground v.1.15,2013-08-27 12:51:00,
2013-08-27 05:57:00,59.2,57.5,29.71,SSE,165,1.0,2.0,94,0.00,,,0.01,0,Wunderground v.1.15,2013-08-27 12:57:00,
2013-08-27 06:02:00,59.1,57.4,29.71,SSE,165,0.0,1.0,94,0.00,,,0.01,0,Wunderground v.1.15,2013-08-27 13:02:00,
2013-08-27 06:07:00,59.1,57.4,29.71,SSE,165,0.0,1.0,94,0.00,,,0.01,0,Wunderground v.1.15,2013-08-27 13:07:00,
2013-08-27 06:12:00,59.0,57.3,29.71,SSE,165,0.0,0.0,94,0.00,,,0.01,0,Wunderground v.1.15,2013-08-27 13:12:00,
2013-08-27 06:17:00,58.9,57.2,29.71,SSE,164,0.0,0.0,94,0.00,,,0.01,0,Wunderground v.1.15,2013-08-27 13:17:00,
2013-08-27 06:22:00,58.9,57.2,29.71,SSE,165,0.0,0.0,94,0.00,,,0.01,0,Wunderground v.1.15,2013-08-27 13:22:00,
2013-08-27 06:27:00,59.0,57.3,29.71,SSE,164,0.0,0.0,94,0.00,,,0.01,0,Wunderground v.1.15,2013-08-27 13:27:00,
2013-08-27 06:32:00,59.0,57.3,29.71,SSE,165,2.0,2.0,94,0.00,,,0.01,0,Wunderground v.1.15,2013-08-27 13:32:00,
2013-08-27 06:37:00,59.1,57.4,29.72,SSE,165,0.0,2.0,94,0.00,,,0.01,5,Wunderground v.1.15,2013-08-27 13:37:00,
2013-08-27 06:42:00,59.2,57.5,29.72,SSE,165,0.0,1.0,94,0.00,,,0.01,7,Wunderground v.1.15,2013-08-27 13:42:00,
2013-08-27 06:47:00,59.3,57.6,29.72,SSE,165,0.0,1.0,94,0.00,,,0.01,7,Wunderground v.1.15,2013-08-27 13:47:00,
2013-08-27 06:52:00,59.3,57.6,29.72,SSE,165,0.0,0.0,94,0.00,,,0.01,9,Wunderground v.1.15,2013-08-27 13:52:00,
2013-08-27 06:57:00,59.4,57.7,29.72,SSE,165,0.0,1.0,94,0.00,,,0.01,12,Wunderground v.1.15,2013-08-27 13:57:00,
2013-08-27 07:02:00,59.5,58.1,29.72,SSE,165,0.0,0.0,95,0.00,,,0.01,16,Wunderground v.1.15,2013-08-27 14:02:00,
2013-08-27 07:07:00,59.6,58.2,29.71,SSE,165,0.0,1.0,95,0.00,,,0.01,21,Wunderground v.1.15,2013-08-27 14:07:00,
2013-08-27 07:12:00,59.8,58.4,29.72,SSE,165,0.0,0.0,95,0.00,,,0.01,21,Wunderground v.1.15,2013-08-27 14:12:00,
2013-08-27 07:17:00,59.9,58.5,29.72,SSE,165,0.0,1.0,95,0.00,,,0.01,33,Wunderground v.1.15,2013-08-27 14:17:00,
2013-08-27 07:22:00,59.9,58.5,29.72,SSE,165,0.0,2.0,95,0.00,,,0.01,47,Wunderground v.1.15,2013-08-27 14:22:00,
2013-08-27 07:27:00,60.1,58.7,29.71,SSE,165,1.0,2.0,95,0.00,,,0.01,53,Wunderground v.1.15,2013-08-27 14:27:00,
2013-08-27 07:32:00,60.2,58.8,29.71,SSE,165,0.0,2.0,95,0.00,,,0.01,60,Wunderground v.1.15,2013-08-27 14:32:00,
2013-08-27 07:37:00,60.4,59.0,29.72,SSE,164,1.0,2.0,95,0.00,,,0.01,88,Wunderground v.1.15,2013-08-27 14:37:00,
2013-08-27 07:42:00,60.6,59.2,29.72,SSE,164,0.0,2.0,95,0.00,,,0.01,105,Wunderground v.1.15,2013-08-27 14:42:00,
2013-08-27 07:47:00,60.9,59.5,29.72,SSE,159,0.0,2.0,95,0.00,,,0.01,105,Wunderground v.1.15,2013-08-27 14:47:00,
2013-08-27 07:52:00,61.1,59.7,29.72,SSE,165,0.0,2.0,95,0.00,,,0.01,83,Wunderground v.1.15,2013-08-27 14:52:00,
2013-08-27 07:57:00,61.3,59.6,29.72,SSE,165,1.0,2.0,94,0.00,,,0.01,70,Wunderground v.1.15,2013-08-27 14:57:00,
2013-08-27 08:02:00,61.3,59.6,29.72,SSE,165,0.0,1.0,94,0.00,,,0.01,79,Wunderground v.1.15,2013-08-27 15:02:00,
2013-08-27 08:07:00,61.5,59.8,29.72,SSE,165,0.0,1.0,94,0.00,,,0.01,70,Wunderground v.1.15,2013-08-27 15:07:00,
2013-08-27 08:12:00,61.6,59.9,29.72,SSE,165,0.0,0.0,94,0.00,,,0.01,72,Wunderground v.1.15,2013-08-27 15:12:00,
2013-08-27 08:17:00,61.7,60.0,29.72,SSE,165,0.0,0.0,94,0.00,,,0.01,88,Wunderground v.1.15,2013-08-27 15:17:00,
2013-08-27 08:22:00,61.7,60.0,29.72,SSE,159,0.0,0.0,94,0.00,,,0.01,111,Wunderground v.1.15,2013-08-27 15:22:00,
2013-08-27 08:27:00,61.9,60.2,29.72,SSE,165,0.0,0.0,94,0.00,,,0.01,125,Wunderground v.1.15,2013-08-27 15:27:00,
2013-08-27 08:32:00,62.2,60.5,29.72,SSE,164,0.0,2.0,94,0.00,,,0.01,151,Wunderground v.1.15,2013-08-27 15:32:00,
2013-08-27 08:37:00,62.5,60.7,29.72,SSE,165,0.0,2.0,94,0.00,,,0.01,151,Wunderground v.1.15,2013-08-27 15:37:00,
2013-08-27 08:42:00,62.7,60.9,29.72,SSE,165,0.0,1.0,94,0.00,,,0.01,139,Wunderground v.1.15,2013-08-27 15:42:00,
2013-08-27 08:47:00,62.9,60.8,29.72,SSE,165,0.0,2.0,93,0.00,,,0.01,114,Wunderground v.1.15,2013-08-27 15:47:00,
2013-08-27 08:52:00,63.2,61.1,29.72,SSE,165,1.0,2.0,93,0.00,,,0.01,114,Wunderground v.1.15,2013-08-27 15:52:00,
2013-08-27 08:57:00,63.4,61.3,29.72,SSE,165,0.0,2.0,93,0.00,,,0.01,132,Wunderground v.1.15,2013-08-27 15:57:00,
2013-08-27 09:02:00,63.5,61.1,29.72,SSE,159,0.0,2.0,92,0.00,,,0.01,165,Wunderground v.1.15,2013-08-27 16:02:00,
2013-08-27 09:07:00,63.7,61.3,29.72,SSE,164,1.0,2.0,92,0.00,,,0.01,132,Wunderground v.1.15,2013-08-27 16:07:00,
2013-08-27 09:12:00,63.8,61.4,29.72,SSE,165,0.0,2.0,92,0.00,,,0.01,114,Wunderground v.1.15,2013-08-27 16:12:00,
2013-08-27 09:17:00,64.0,61.3,29.71,SSE,165,0.0,2.0,91,0.00,,,0.01,125,Wunderground v.1.15,2013-08-27 16:17:00,
2013-08-27 09:22:00,64.2,61.5,29.71,SSE,165,0.0,0.0,91,0.00,,,0.01,202,Wunderground v.1.15,2013-08-27 16:22:00,
2013-08-27 09:27:00,64.5,62.1,29.71,NNW,341,3.0,3.0,92,0.00,,,0.01,260,Wunderground v.1.15,2013-08-27 16:27:00,
2013-08-27 09:32:00,64.6,61.9,29.71,NNW,338,3.0,4.0,91,0.00,,,0.01,276,Wunderground v.1.15,2013-08-27 16:32:00,
2013-08-27 09:37:00,64.8,62.1,29.71,North,360,3.0,4.0,91,0.00,,,0.01,197,Wunderground v.1.15,2013-08-27 16:37:00,
2013-08-27 09:42:00,64.7,61.7,29.71,North,10,3.0,4.0,90,0.00,,,0.01,202,Wunderground v.1.15,2013-08-27 16:42:00,
2013-08-27 09:47:00,64.8,61.8,29.70,North,9,2.0,4.0,90,0.00,,,0.01,221,Wunderground v.1.15,2013-08-27 16:47:00,
2013-08-27 09:52:00,64.9,62.2,29.71,North,351,2.0,2.0,91,0.00,,,0.01,234,Wunderground v.1.15,2013-08-27 16:52:00,
2013-08-27 09:57:00,65.1,62.1,29.71,North,355,0.0,4.0,90,0.00,,,0.01,250,Wunderground v.1.15,2013-08-27 16:57:00,
2013-08-27 10:02:00,65.4,62.4,29.70,North,355,0.0,2.0,90,0.00,,,0.01,489,Wunderground v.1.15,2013-08-27 17:02:00,
2013-08-27 10:07:00,66.4,62.7,29.70,NE,51,1.0,3.0,88,0.00,,,0.01,694,Wunderground v.1.15,2013-08-27 17:07:00,
2013-08-27 10:12:00,67.2,63.5,29.70,NE,54,1.0,3.0,88,0.00,,,0.01,668,Wunderground v.1.15,2013-08-27 17:12:00,
2013-08-27 10:17:00,67.9,62.9,29.70,ENE,57,0.0,4.0,84,0.00,,,0.01,366,Wunderground v.1.15,2013-08-27 17:17:00,
2013-08-27 10:22:00,68.3,63.3,29.70,ENE,64,0.0,1.0,84,0.00,,,0.01,388,Wunderground v.1.15,2013-08-27 17:22:00,
2013-08-27 10:27:00,68.7,62.6,29.69,ENE,64,0.0,3.0,81,0.00,,,0.01,404,Wunderground v.1.15,2013-08-27 17:27:00,
2013-08-27 10:32:00,69.2,63.5,29.69,ENE,64,0.0,1.0,82,0.00,,,0.01,364,Wunderground v.1.15,2013-08-27 17:32:00,
2013-08-27 10:37:00,69.5,63.1,29.69,ENE,64,0.0,2.0,80,0.00,,,0.01,364,Wunderground v.1.15,2013-08-27 17:37:00,
2013-08-27 10:42:00,69.7,62.5,29.69,NE,34,0.0,3.0,78,0.00,,,0.01,355,Wunderground v.1.15,2013-08-27 17:42:00,
2013-08-27 10:47:00,69.9,63.1,29.69,NNW,333,3.0,3.0,79,0.00,,,0.01,380,Wunderground v.1.15,2013-08-27 17:47:00,
2013-08-27 10:52:00,69.9,62.4,29.69,WNW,302,3.0,3.0,77,0.00,,,0.01,489,Wunderground v.1.15,2013-08-27 17:52:00,
2013-08-27 10:57:00,70.2,62.6,29.68,NW,304,2.0,3.0,77,0.00,,,0.01,404,Wunderground v.1.15,2013-08-27 17:57:00,
2013-08-27 11:02:00,70.4,62.5,29.68,NE,41,1.0,4.0,76,0.00,,,0.01,682,Wunderground v.1.15,2013-08-27 18:02:00,
2013-08-27 11:07:00,70.7,62.4,29.68,NW,315,2.0,5.0,75,0.00,,,0.01,408,Wunderground v.1.15,2013-08-27 18:07:00,
2013-08-27 11:12:00,70.7,62.0,29.68,WSW,241,0.0,4.0,74,0.00,,,0.01,366,Wunderground v.1.15,2013-08-27 18:12:00,
2013-08-27 11:17:00,70.8,61.3,29.68,NNW,328,1.0,4.0,72,0.00,,,0.01,388,Wunderground v.1.15,2013-08-27 18:17:00,
2013-08-27 11:22:00,71.1,62.4,29.68,NW,308,0.0,3.0,74,0.00,,,0.01,432,Wunderground v.1.15,2013-08-27 18:22:00,
2013-08-27 11:27:00,71.3,62.6,29.67,NW,315,2.0,3.0,74,0.00,,,0.01,580,Wunderground v.1.15,2013-08-27 18:27:00,
2013-08-27 11:32:00,71.4,62.3,29.67,NW,326,0.0,3.0,73,0.00,,,0.01,550,Wunderground v.1.15,2013-08-27 18:32:00,
2013-08-27 11:37:00,72.0,62.5,29.67,West,269,2.0,3.0,72,0.00,,,0.01,315,Wunderground v.1.15,2013-08-27 18:37:00,
2013-08-27 11:42:00,72.3,62.4,29.67,NNW,341,1.0,3.0,71,0.00,,,0.01,652,Wunderground v.1.15,2013-08-27 18:42:00,
2013-08-27 11:47:00,72.9,62.1,29.66,West,269,0.0,3.0,69,0.00,,,0.01,770,Wunderground v.1.15,2013-08-27 18:47:00,
2013-08-27 11:52:00,73.5,62.7,29.66,NE,45,0.0,3.0,69,0.00,,,0.01,638,Wunderground v.1.15,2013-08-27 18:52:00,
2013-08-27 11:57:00,74.2,63.4,29.66,North,9,9.0,9.0,69,0.00,,,0.01,563,Wunderground v.1.15,2013-08-27 18:57:00,
2013-08-27 12:02:00,73.9,62.2,29.66,WNW,293,4.0,5.0,67,0.00,,,0.01,527,Wunderground v.1.15,2013-08-27 19:02:00,
2013-08-27 12:07:00,73.8,62.6,29.66,North,349,2.0,5.0,68,0.00,,,0.01,656,Wunderground v.1.15,2013-08-27 19:07:00,
2013-08-27 12:12:00,74.0,62.3,29.66,WNW,294,3.0,3.0,67,0.00,,,0.01,578,Wunderground v.1.15,2013-08-27 19:12:00,
2013-08-27 12:17:00,73.8,61.7,29.65,NNW,330,0.0,5.0,66,0.00,,,0.01,443,Wunderground v.1.15,2013-08-27 19:17:00,
2013-08-27 12:22:00,74.1,62.4,29.65,NNW,330,0.0,2.0,67,0.00,,,0.01,659,Wunderground v.1.15,2013-08-27 19:22:00,
2013-08-27 12:27:00,75.1,63.4,29.65,NNE,28,4.0,6.0,67,0.00,,,0.01,817,Wunderground v.1.15,2013-08-27 19:27:00,
2013-08-27 12:32:00,75.5,62.9,29.64,NW,304,4.0,5.0,65,0.00,,,0.01,591,Wunderground v.1.15,2013-08-27 19:32:00,
2013-08-27 12:37:00,74.8,62.7,29.65,NNW,342,2.0,6.0,66,0.00,,,0.01,483,Wunderground v.1.15,2013-08-27 19:37:00,
2013-08-27 12:42:00,75.1,63.0,29.64,NE,49,0.0,3.0,66,0.00,,,0.01,749,Wunderground v.1.15,2013-08-27 19:42:00,
2013-08-27 12:47:00,75.5,62.9,29.64,NW,312,0.0,5.0,65,0.00,,,0.01,726,Wunderground v.1.15,2013-08-27 19:47:00,
2013-08-27 12:52:00,76.0,62.0,29.64,South,190,4.0,6.0,62,0.00,,,0.01,895,Wunderground v.1.15,2013-08-27 19:52:00,
2013-08-27 12:57:00,76.0,62.5,29.64,NNE,17,3.0,6.0,63,0.00,,,0.01,352,Wunderground v.1.15,2013-08-27 19:57:00,
2013-08-27 13:02:00,75.7,62.2,29.63,WSW,242,4.0,5.0,63,0.00,,,0.01,309,Wunderground v.1.15,2013-08-27 20:02:00,
2013-08-27 13:07:00,75.3,61.8,29.63,WSW,250,5.0,6.0,63,0.00,,,0.01,239,Wunderground v.1.15,2013-08-27 20:07:00,
2013-08-27 13:12:00,75.1,61.6,29.63,WNW,297,1.0,4.0,63,0.00,,,0.01,714,Wunderground v.1.15,2013-08-27 20:12:00,
2013-08-27 13:17:00,75.5,62.0,29.63,WNW,300,1.0,6.0,63,0.00,,,0.01,587,Wunderground v.1.15,2013-08-27 20:17:00,
2013-08-27 13:22:00,75.6,62.1,29.63,SSW,194,2.0,3.0,63,0.00,,,0.01,578,Wunderground v.1.15,2013-08-27 20:22:00,
2013-08-27 13:27:00,75.9,61.9,29.62,NNW,336,1.0,5.0,62,0.00,,,0.01,408,Wunderground v.1.15,2013-08-27 20:27:00,
2013-08-27 13:32:00,76.4,62.9,29.62,WNW,296,2.0,5.0,63,0.00,,,0.01,708,Wunderground v.1.15,2013-08-27 20:32:00,
2013-08-27 13:37:00,77.4,62.9,29.62,WNW,299,2.0,5.0,61,0.00,,,0.01,559,Wunderground v.1.15,2013-08-27 20:37:00,
2013-08-27 13:42:00,77.5,63.0,29.62,SW,235,3.0,6.0,61,0.00,,,0.01,642,Wunderground v.1.15,2013-08-27 20:42:00,
2013-08-27 13:47:00,77.9,62.4,29.62,SW,236,2.0,7.0,59,0.00,,,0.01,756,Wunderground v.1.15,2013-08-27 20:47:00,
2013-08-27 13:52:00,77.5,62.0,29.62,SW,217,0.0,6.0,59,0.00,,,0.01,415,Wunderground v.1.15,2013-08-27 20:52:00,
2013-08-27 13:57:00,77.9,62.4,29.61,West,265,3.0,7.0,59,0.00,,,0.01,775,Wunderground v.1.15,2013-08-27 20:57:00,
2013-08-27 14:02:00,78.0,62.0,29.61,NW,323,5.0,9.0,58,0.00,,,0.01,784,Wunderground v.1.15,2013-08-27 21:02:00,
2013-08-27 14:07:00,78.0,61.5,29.61,NW,322,1.0,9.0,57,0.00,,,0.01,585,Wunderground v.1.15,2013-08-27 21:07:00,
2013-08-27 14:12:00,78.2,61.2,29.61,NE,45,2.0,5.0,56,0.00,,,0.01,726,Wunderground v.1.15,2013-08-27 21:12:00,
2013-08-27 14:17:00,79.0,62.5,29.61,NNW,344,3.0,7.0,57,0.00,,,0.01,926,Wunderground v.1.15,2013-08-27 21:17:00,
2013-08-27 14:22:00,79.7,62.1,29.61,WNW,296,4.0,8.0,55,0.00,,,0.01,867,Wunderground v.1.15,2013-08-27 21:22:00,
2013-08-27 14:27:00,79.8,61.7,29.60,West,274,4.0,9.0,54,0.00,,,0.01,350,Wunderground v.1.15,2013-08-27 21:27:00,
2013-08-27 14:32:00,79.5,61.9,29.61,SW,227,6.0,9.0,55,0.00,,,0.01,369,Wunderground v.1.15,2013-08-27 21:32:00,
2013-08-27 14:37:00,79.4,60.8,29.60,West,264,5.0,9.0,53,0.00,,,0.01,626,Wunderground v.1.15,2013-08-27 21:37:00,
2013-08-27 14:42:00,79.4,61.3,29.60,West,269,5.0,6.0,54,0.00,,,0.01,489,Wunderground v.1.15,2013-08-27 21:42:00,
2013-08-27 14:47:00,79.4,61.3,29.60,WNW,301,1.0,7.0,54,0.00,,,0.01,396,Wunderground v.1.15,2013-08-27 21:47:00,
2013-08-27 14:52:00,79.6,62.0,29.59,SSW,209,1.0,3.0,55,0.00,,,0.01,784,Wunderground v.1.15,2013-08-27 21:52:00,
2013-08-27 14:57:00,80.1,60.9,29.59,WNW,289,0.0,4.0,52,0.00,,,0.01,568,Wunderground v.1.15,2013-08-27 21:57:00,
2013-08-27 15:02:00,80.5,62.3,29.59,NW,316,5.0,7.0,54,0.00,,,0.01,830,Wunderground v.1.15,2013-08-27 22:02:00,
2013-08-27 15:07:00,80.0,61.3,29.59,North,5,5.0,8.0,53,0.00,,,0.01,401,Wunderground v.1.15,2013-08-27 22:07:00,
2013-08-27 15:12:00,80.1,62.5,29.59,WNW,301,6.0,7.0,55,0.00,,,0.01,988,Wunderground v.1.15,2013-08-27 22:12:00,
2013-08-27 15:17:00,80.4,62.8,29.59,NW,320,5.0,9.0,55,0.00,,,0.01,861,Wunderground v.1.15,2013-08-27 22:17:00,
2013-08-27 15:22:00,80.5,61.8,29.59,ESE,121,3.0,5.0,53,0.00,,,0.01,715,Wunderground v.1.15,2013-08-27 22:22:00,
2013-08-27 15:27:00,80.9,62.7,29.59,West,274,4.0,5.0,54,0.00,,,0.01,715,Wunderground v.1.15,2013-08-27 22:27:00,
2013-08-27 15:32:00,81.2,61.9,29.58,WSW,251,5.0,11.0,52,0.00,,,0.01,715,Wunderground v.1.15,2013-08-27 22:32:00,
2013-08-27 15:37:00,81.2,61.4,29.58,WSW,250,10.0,11.0,51,0.00,,,0.01,526,Wunderground v.1.15,2013-08-27 22:37:00,
2013-08-27 15:42:00,81.1,60.7,29.59,WSW,244,9.0,9.0,50,0.00,,,0.01,371,Wunderground v.1.15,2013-08-27 22:42:00,
2013-08-27 15:47:00,80.4,61.2,29.58,WSW,244,6.0,9.0,52,0.00,,,0.01,515,Wunderground v.1.15,2013-08-27 22:47:00,
2013-08-27 15:52:00,80.5,61.3,29.58,SW,233,4.0,9.0,52,0.00,,,0.01,355,Wunderground v.1.15,2013-08-27 22:52:00,
2013-08-27 15:57:00,80.3,61.1,29.59,WSW,242,6.0,9.0,52,0.00,,,0.01,338,Wunderground v.1.15,2013-08-27 22:57:00,
2013-08-27 16:02:00,79.8,61.1,29.58,WSW,258,3.0,6.0,53,0.00,,,0.01,350,Wunderground v.1.15,2013-08-27 23:02:00,
2013-08-27 16:07:00,80.0,60.8,29.58,WNW,300,2.0,6.0,52,0.00,,,0.01,320,Wunderground v.1.15,2013-08-27 23:07:00,
2013-08-27 16:12:00,80.0,61.3,29.58,WNW,300,4.0,5.0,53,0.00,,,0.01,313,Wunderground v.1.15,2013-08-27 23:12:00,
2013-08-27 16:17:00,79.7,61.1,29.58,WNW,288,3.0,7.0,53,0.00,,,0.01,251,Wunderground v.1.15,2013-08-27 23:17:00,
2013-08-27 16:22:00,79.5,60.9,29.58,WSW,247,5.0,6.0,53,0.00,,,0.01,274,Wunderground v.1.15,2013-08-27 23:22:00,
2013-08-27 16:27:00,79.4,61.3,29.58,West,279,6.0,7.0,54,0.00,,,0.01,269,Wunderground v.1.15,2013-08-27 23:27:00,
2013-08-27 16:32:00,80.1,61.4,29.58,WNW,298,4.0,9.0,53,0.00,,,0.01,635,Wunderground v.1.15,2013-08-27 23:32:00,
2013-08-27 16:37:00,79.6,61.0,29.58,West,276,2.0,9.0,53,0.00,,,0.01,197,Wunderground v.1.15,2013-08-27 23:37:00,
2013-08-27 16:43:00,79.1,61.0,29.58,West,281,2.0,5.0,54,0.00,,,0.01,146,Wunderground v.1.15,2013-08-27 23:43:00,
2013-08-27 16:48:00,78.9,61.4,29.58,WSW,240,3.0,5.0,55,0.00,,,0.01,118,Wunderground v.1.15,2013-08-27 23:48:00,
2013-08-27 16:53:00,78.7,61.2,29.58,WSW,248,2.0,3.0,55,0.00,,,0.01,93,Wunderground v.1.15,2013-08-27 23:53:00,
2013-08-27 16:58:00,78.3,60.8,29.58,West,275,3.0,6.0,55,0.00,,,0.01,83,Wunderground v.1.15,2013-08-27 23:58:00,
2013-08-27 17:03:00,78.1,61.6,29.58,WSW,250,4.0,5.0,57,0.00,,,0.01,77,Wunderground v.1.15,2013-08-28 00:03:00,
2013-08-27 17:08:00,77.9,60.9,29.58,West,277,4.0,6.0,56,0.00,,,0.01,88,Wunderground v.1.15,2013-08-28 00:08:00,
2013-08-27 17:13:00,77.8,61.3,29.58,West,281,4.0,5.0,57,0.00,,,0.01,113,Wunderground v.1.15,2013-08-28 00:13:00,
2013-08-27 17:18:00,77.8,60.8,29.58,West,269,3.0,5.0,56,0.00,,,0.01,123,Wunderground v.1.15,2013-08-28 00:18:00,
2013-08-27 17:23:00,77.8,61.3,29.58,West,269,3.0,5.0,57,0.00,,,0.01,109,Wunderground v.1.15,2013-08-28 00:23:00,
2013-08-27 17:28:00,77.8,60.8,29.58,WNW,295,3.0,5.0,56,0.00,,,0.01,109,Wunderground v.1.15,2013-08-28 00:28:00,
2013-08-27 17:33:00,77.8,61.3,29.58,WNW,290,2.0,4.0,57,0.00,,,0.01,125,Wunderground v.1.15,2013-08-28 00:33:00,
2013-08-27 17:38:00,77.8,61.3,29.58,West,278,5.0,5.0,57,0.00,,,0.01,105,Wunderground v.1.15,2013-08-28 00:38:00,
2013-08-27 17:43:00,77.7,61.3,29.58,WSW,257,5.0,5.0,57,0.00,,,0.01,107,Wunderground v.1.15,2013-08-28 00:43:00,
2013-08-27 17:48:00,77.6,61.2,29.58,WNW,284,4.0,5.0,57,0.00,,,0.01,104,Wunderground v.1.15,2013-08-28 00:48:00,
2013-08-27 17:53:00,77.5,62.0,29.58,WNW,295,2.0,4.0,59,0.00,,,0.01,109,Wunderground v.1.15,2013-08-28 00:53:00,
2013-08-27 17:58:00,77.4,61.5,29.58,WNW,302,1.0,5.0,58,0.00,,,0.01,100,Wunderground v.1.15,2013-08-28 00:58:00,
2013-08-27 18:03:00,77.4,61.5,29.58,WNW,296,4.0,4.0,58,0.00,,,0.01,93,Wunderground v.1.15,2013-08-28 01:03:00,
2013-08-27 18:08:00,77.3,61.4,29.58,WNW,302,2.0,5.0,58,0.00,,,0.01,98,Wunderground v.1.15,2013-08-28 01:08:00,
2013-08-27 18:13:00,77.2,61.8,29.58,West,281,3.0,5.0,59,0.00,,,0.01,88,Wunderground v.1.15,2013-08-28 01:13:00,
2013-08-27 18:18:00,77.1,61.2,29.58,West,281,3.0,5.0,58,0.00,,,0.01,83,Wunderground v.1.15,2013-08-28 01:18:00,
2013-08-27 18:23:00,77.1,61.7,29.58,West,262,4.0,4.0,59,0.00,,,0.01,88,Wunderground v.1.15,2013-08-28 01:23:00,
2013-08-27 18:28:00,76.8,61.9,29.58,West,264,5.0,8.0,60,0.00,,,0.01,83,Wunderground v.1.15,2013-08-28 01:28:00,
2013-08-27 18:33:00,76.3,61.9,29.58,West,261,5.0,8.0,61,0.00,,,0.01,76,Wunderground v.1.15,2013-08-28 01:33:00,
2013-08-27 18:38:00,76.0,62.0,29.58,WSW,253,3.0,8.0,62,0.00,,,0.01,65,Wunderground v.1.15,2013-08-28 01:38:00,
2013-08-27 18:43:00,75.6,62.1,29.58,WNW,286,4.0,8.0,63,0.00,,,0.01,60,Wunderground v.1.15,2013-08-28 01:43:00,
2013-08-27 18:48:00,75.1,62.5,29.58,WSW,250,3.0,8.0,65,0.00,,,0.01,62,Wunderground v.1.15,2013-08-28 01:48:00,
2013-08-27 18:53:00,74.8,62.2,29.58,WSW,253,7.0,10.0,65,0.00,,,0.01,62,Wunderground v.1.15,2013-08-28 01:53:00,
2013-08-27 18:58:00,74.6,62.9,29.58,WSW,246,4.0,10.0,67,0.00,,,0.01,65,Wunderground v.1.15,2013-08-28 01:58:00,
2013-08-27 19:03:00,74.4,62.3,29.59,West,262,4.0,6.0,66,0.00,,,0.01,56,Wunderground v.1.15,2013-08-28 02:03:00,
2013-08-27 19:08:00,74.4,62.7,29.58,WNW,286,4.0,7.0,67,0.00,,,0.01,56,Wunderground v.1.15,2013-08-28 02:08:00,
2013-08-27 19:13:00,74.2,62.5,29.58,WNW,290,6.0,6.0,67,0.00,,,0.01,42,Wunderground v.1.15,2013-08-28 02:13:00,
2013-08-27 19:18:00,74.0,62.8,29.58,WNW,298,3.0,6.0,68,0.00,,,0.01,28,Wunderground v.1.15,2013-08-28 02:18:00,
2013-08-27 19:23:00,73.8,62.6,29.59,WNW,284,3.0,4.0,68,0.00,,,0.01,21,Wunderground v.1.15,2013-08-28 02:23:00,
2013-08-27 19:28:00,73.6,63.2,29.59,WNW,283,2.0,5.0,70,0.00,,,0.01,16,Wunderground v.1.15,2013-08-28 02:28:00,
2013-08-27 19:33:00,73.4,63.0,29.59,NW,304,2.0,4.0,70,0.00,,,0.01,9,Wunderground v.1.15,2013-08-28 02:33:00,
2013-08-27 19:38:00,73.1,63.1,29.60,West,276,5.0,5.0,71,0.00,,,0.01,7,Wunderground v.1.15,2013-08-28 02:38:00,
2013-08-27 19:43:00,72.8,63.2,29.59,WNW,292,1.0,3.0,72,0.00,,,0.01,5,Wunderground v.1.15,2013-08-28 02:43:00,
2013-08-27 19:48:00,72.5,63.4,29.60,NW,308,3.0,4.0,73,0.00,,,0.01,0,Wunderground v.1.15,2013-08-28 02:48:00,
2013-08-27 19:53:00,72.3,63.5,29.59,NW,308,2.0,4.0,74,0.00,,,0.01,0,Wunderground v.1.15,2013-08-28 02:53:00,
2013-08-27 19:58:00,72.0,63.6,29.60,NW,311,1.0,4.0,75,0.00,,,0.01,0,Wunderground v.1.15,2013-08-28 02:58:00,
2013-08-27 20:03:00,71.6,63.6,29.60,NW,311,1.0,3.0,76,0.00,,,0.01,0,Wunderground v.1.15,2013-08-28 03:03:00,
2013-08-27 20:08:00,71.2,64.0,29.60,NW,311,2.0,3.0,78,0.00,,,0.01,0,Wunderground v.1.15,2013-08-28 03:08:00,
2013-08-27 20:13:00,70.9,63.7,29.60,NW,311,1.0,2.0,78,0.00,,,0.01,0,Wunderground v.1.15,2013-08-28 03:13:00,
2013-08-27 20:18:00,70.5,63.3,29.60,NNW,339,4.0,6.0,78,0.00,,,0.01,0,Wunderground v.1.15,2013-08-28 03:18:00,
2013-08-27 20:23:00,70.3,63.5,29.60,NNW,333,5.0,6.0,79,0.00,,,0.01,0,Wunderground v.1.15,2013-08-28 03:23:00,
2013-08-27 20:28:00,70.0,63.5,29.61,NW,304,3.0,6.0,80,0.00,,,0.01,0,Wunderground v.1.15,2013-08-28 03:28:00,
2013-08-27 20:33:00,69.6,63.9,29.60,NW,312,3.0,4.0,82,0.00,,,0.01,0,Wunderground v.1.15,2013-08-28 03:33:00,
2013-08-27 20:38:00,69.2,63.5,29.60,NW,314,0.0,4.0,82,0.00,,,0.01,0,Wunderground v.1.15,2013-08-28 03:38:00,
2013-08-27 20:43:00,68.9,63.5,29.60,North,355,1.0,4.0,83,0.00,,,0.01,0,Wunderground v.1.15,2013-08-28 03:43:00,
2013-08-27 20:48:00,68.8,63.4,29.60,North,5,3.0,4.0,83,0.00,,,0.01,0,Wunderground v.1.15,2013-08-28 03:48:00,
2013-08-27 20:53:00,68.7,63.3,29.60,North,360,4.0,5.0,83,0.00,,,0.01,0,Wunderground v.1.15,2013-08-28 03:53:00,
2013-08-27 20:58:00,68.6,63.2,29.60,NNW,336,5.0,7.0,83,0.00,,,0.01,0,Wunderground v.1.15,2013-08-28 03:58:00,
2013-08-27 21:01:00,68.5,63.1,29.60,NNW,338,2.0,5.0,83,0.00,,,0.01,0,Wunderground v.1.15,2013-08-28 04:01:00,
2013-08-27 21:02:00,68.5,63.1,29.60,North,355,3.0,5.0,83,0.00,,,0.01,0,Wunderground v.1.15,2013-08-28 04:02:00,
2013-08-27 21:07:00,68.4,63.4,29.61,North,360,1.0,5.0,84,0.00,,,0.01,0,Wunderground v.1.15,2013-08-28 04:07:00,
2013-08-27 21:12:00,68.2,63.2,29.61,North,360,1.0,3.0,84,0.00,,,0.01,0,Wunderground v.1.15,2013-08-28 04:12:00,
2013-08-27 21:17:00,68.1,63.1,29.61,North,360,0.0,3.0,84,0.00,,,0.01,0,Wunderground v.1.15,2013-08-28 04:17:00,
2013-08-27 21:22:00,68.0,63.3,29.61,North,360,0.0,0.0,85,0.00,,,0.01,0,Wunderground v.1.15,2013-08-28 04:22:00,
2013-08-27 21:27:00,67.8,63.1,29.61,North,9,0.0,0.0,85,0.00,,,0.01,0,Wunderground v.1.15,2013-08-28 04:27:00,
2013-08-27 21:32:00,67.5,62.8,29.61,North,9,0.0,1.0,85,0.00,,,0.01,0,Wunderground v.1.15,2013-08-28 04:32:00,
2013-08-27 21:37:00,67.1,62.8,29.61,North,9,0.0,1.0,86,0.00,,,0.01,0,Wunderground v.1.15,2013-08-28 04:37:00,
2013-08-27 21:42:00,67.0,62.7,29.61,West,280,0.0,1.0,86,0.00,,,0.01,0,Wunderground v.1.15,2013-08-28 04:42:00,
2013-08-27 21:47:00,67.0,62.7,29.61,West,280,0.0,1.0,86,0.00,,,0.01,0,Wunderground v.1.15,2013-08-28 04:47:00,
2013-08-27 21:52:00,66.8,62.8,29.61,West,280,0.0,1.0,87,0.00,,,0.01,0,Wunderground v.1.15,2013-08-28 04:52:00,
2013-08-27 21:57:00,66.6,62.6,29.61,West,280,0.0,1.0,87,0.00,,,0.01,0,Wunderground v.1.15,2013-08-28 04:57:00,
2013-08-27 22:02:00,66.5,62.5,29.61,West,280,0.0,0.0,87,0.00,,,0.01,0,Wunderground v.1.15,2013-08-28 05:02:00,
2013-08-27 22:07:00,66.5,62.8,29.61,West,280,0.0,0.0,88,0.00,,,0.01,0,Wunderground v.1.15,2013-08-28 05:07:00,
2013-08-27 22:12:00,66.5,62.8,29.61,West,280,0.0,0.0,88,0.00,,,0.01,0,Wunderground v.1.15,2013-08-28 05:12:00,
2013-08-27 22:17:00,66.3,62.3,29.61,West,280,0.0,2.0,87,0.00,,,0.01,0,Wunderground v.1.15,2013-08-28 05:17:00,
2013-08-27 22:22:00,66.1,62.4,29.61,West,280,0.0,0.0,88,0.00,,,0.01,0,Wunderground v.1.15,2013-08-28 05:22:00,
2013-08-27 22:27:00,65.8,62.1,29.62,West,280,0.0,1.0,88,0.00,,,0.01,0,Wunderground v.1.15,2013-08-28 05:27:00,
2013-08-27 22:32:00,65.7,62.4,29.61,West,280,0.0,1.0,89,0.00,,,0.01,0,Wunderground v.1.15,2013-08-28 05:32:00,
2013-08-27 22:37:00,65.7,62.4,29.61,West,280,0.0,1.0,89,0.00,,,0.01,0,Wunderground v.1.15,2013-08-28 05:37:00,
2013-08-27 22:42:00,65.6,62.3,29.61,West,280,0.0,1.0,89,0.00,,,0.01,0,Wunderground v.1.15,2013-08-28 05:42:00,
2013-08-27 22:47:00,65.5,62.2,29.61,West,280,0.0,1.0,89,0.00,,,0.01,0,Wunderground v.1.15,2013-08-28 05:47:00,
2013-08-27 22:52:00,65.4,62.1,29.61,West,280,0.0,1.0,89,0.00,,,0.01,0,Wunderground v.1.15,2013-08-28 05:52:00,
2013-08-27 22:57:00,65.3,62.0,29.61,West,280,2.0,2.0,89,0.00,,,0.01,0,Wunderground v.1.15,2013-08-28 05:57:00,
2013-08-27 23:02:00,65.0,62.0,29.61,West,280,1.0,2.0,90,0.00,,,0.01,0,Wunderground v.1.15,2013-08-28 06:02:00,
2013-08-27 23:07:00,65.0,62.3,29.61,West,280,2.0,3.0,91,0.00,,,0.01,0,Wunderground v.1.15,2013-08-28 06:07:00,
2013-08-27 23:12:00,65.1,62.4,29.61,West,280,1.0,2.0,91,0.00,,,0.01,0,Wunderground v.1.15,2013-08-28 06:12:00,
2013-08-27 23:17:00,65.0,62.3,29.62,West,280,0.0,2.0,91,0.00,,,0.01,0,Wunderground v.1.15,2013-08-28 06:17:00,
2013-08-27 23:22:00,65.1,62.4,29.61,West,280,0.0,1.0,91,0.00,,,0.01,0,Wunderground v.1.15,2013-08-28 06:22:00,
2013-08-27 23:27:00,65.1,62.4,29.61,West,280,0.0,1.0,91,0.00,,,0.01,0,Wunderground v.1.15,2013-08-28 06:27:00,
2013-08-27 23:32:00,65.0,62.3,29.61,West,280,1.0,1.0,91,0.00,,,0.01,0,Wunderground v.1.15,2013-08-28 06:32:00,
2013-08-27 23:37:00,64.9,62.2,29.61,West,280,0.0,2.0,91,0.00,,,0.01,0,Wunderground v.1.15,2013-08-28 06:37:00,
2013-08-27 23:42:00,64.8,62.1,29.62,West,280,2.0,2.0,91,0.00,,,0.01,0,Wunderground v.1.15,2013-08-28 06:42:00,
2013-08-27 23:47:00,64.8,62.1,29.61,West,280,0.0,2.0,91,0.00,,,0.01,0,Wunderground v.1.15,2013-08-28 06:47:00,
2013-08-27 23:52:00,64.8,62.4,29.61,West,280,0.0,0.0,92,0.00,,,0.01,0,Wunderground v.1.15,2013-08-28 06:52:00,
2013-08-27 23:57:00,64.6,61.9,29.61,West,280,1.0,1.0,91,0.00,,,0.01,0,Wunderground v.1.15,2013-08-28 06:57:00,